Time;durP1;ratioP1;P1;durP2;ratioP2;P2;SDS_P1;SDS_P2;PMS_P1;PMS_P2;Temp;Humidity;BMP_temperature;BMP_pressure;BME280_temperature;BME280_humidity;BME280_pressure;Samples;Min_cycle;Max_cycle;Signal;HPM_P1;HPM_P2
2023/08/08 00:01:12;;;;;;;7.43;5.45;;;12.80;99.90;;;;;;5013418;28;20041;-73
2023/08/08 00:03:38;;;;;;;8.75;5.90;;;12.80;99.90;;;;;;5008338;28;20056;-72
2023/08/08 00:06:03;;;;;;;10.18;5.88;;;12.80;99.90;;;;;;5011191;28;20065;-70
2023/08/08 00:08:29;;;;;;;9.05;5.72;;;12.80;99.90;;;;;;5015112;28;20134;-72
2023/08/08 00:10:54;;;;;;;10.13;6.05;;;12.80;99.90;;;;;;5022781;28;20076;-70
2023/08/08 00:13:20;;;;;;;8.88;6.15;;;12.80;99.90;;;;;;5021500;28;20480;-70
2023/08/08 00:15:46;;;;;;;10.98;6.50;;;12.80;99.90;;;;;;5014297;28;20030;-70
2023/08/08 00:18:11;;;;;;;9.52;6.00;;;12.80;99.90;;;;;;5025520;28;20036;-70
2023/08/08 00:20:37;;;;;;;11.00;6.65;;;12.90;99.90;;;;;;5028035;28;20487;-70
2023/08/08 00:23:03;;;;;;;9.20;6.10;;;12.90;99.90;;;;;;5017183;28;20488;-71
2023/08/08 00:25:29;;;;;;;11.40;6.25;;;12.90;99.90;;;;;;5015214;28;20033;-70
2023/08/08 00:27:54;;;;;;;12.93;7.03;;;13.00;99.90;;;;;;5020666;28;20515;-74
2023/08/08 00:30:20;;;;;;;12.10;6.63;;;13.00;99.90;;;;;;5021988;28;20045;-73
2023/08/08 00:32:46;;;;;;;9.75;6.72;;;13.00;99.90;;;;;;5019818;28;20117;-71
2023/08/08 00:35:11;;;;;;;9.77;6.53;;;13.10;99.90;;;;;;5021693;28;20041;-73
2023/08/08 00:37:37;;;;;;;10.13;6.80;;;13.10;99.90;;;;;;5020353;28;20037;-70
2023/08/08 00:40:03;;;;;;;10.25;5.90;;;13.10;99.90;;;;;;5016698;28;20053;-70
2023/08/08 00:42:29;;;;;;;10.27;6.60;;;13.20;99.90;;;;;;5015811;28;20541;-70
2023/08/08 00:45:01;;;;;;;10.65;6.55;;;13.20;99.90;;;;;;5020009;28;20106;-71
2023/08/08 00:47:27;;;;;;;12.10;6.97;;;13.20;99.90;;;;;;5018070;28;20053;-72
2023/08/08 00:49:53;;;;;;;9.48;6.72;;;13.30;99.90;;;;;;5014851;28;20037;-70
2023/08/08 00:52:19;;;;;;;13.23;6.63;;;13.30;99.90;;;;;;5027896;28;20030;-71
2023/08/08 00:54:45;;;;;;;11.88;6.70;;;13.30;99.90;;;;;;5021661;28;20147;-70
2023/08/08 00:57:12;;;;;;;12.30;6.70;;;13.40;99.90;;;;;;5009092;28;20041;-72
2023/08/08 00:59:38;;;;;;;8.88;6.88;;;13.40;99.90;;;;;;5010005;28;20110;-70
2023/08/08 01:02:04;;;;;;;11.55;6.20;;;13.40;99.90;;;;;;5021740;28;20563;-70
2023/08/08 01:04:29;;;;;;;15.40;6.57;;;13.40;99.90;;;;;;5018031;28;20514;-70
2023/08/08 01:07:04;;;;;;;9.40;6.43;;;13.40;99.90;;;;;;5004422;28;20192;-71
2023/08/08 01:09:38;;;;;;;12.88;6.40;;;13.40;99.90;;;;;;5020313;28;20180;-70
2023/08/08 01:12:07;;;;;;;12.32;6.30;;;13.40;99.90;;;;;;5020007;28;20038;-71
2023/08/08 01:14:35;;;;;;;12.68;6.13;;;13.50;99.90;;;;;;5008325;28;20075;-71
2023/08/08 01:17:01;;;;;;;12.98;6.20;;;13.50;99.90;;;;;;5021186;28;20042;-70
2023/08/08 01:19:28;;;;;;;10.75;5.78;;;13.50;99.90;;;;;;5024790;28;20045;-70
2023/08/08 01:22:00;;;;;;;8.55;5.85;;;13.50;99.90;;;;;;5031084;28;20487;-73
2023/08/08 01:24:29;;;;;;;11.73;6.32;;;13.50;99.90;;;;;;5010296;28;20092;-70
2023/08/08 01:26:55;;;;;;;12.60;6.43;;;13.50;99.90;;;;;;5022606;28;20112;-70
2023/08/08 01:29:21;;;;;;;10.23;6.05;;;13.50;99.90;;;;;;5021939;28;20523;-70
2023/08/08 01:31:47;;;;;;;10.23;6.28;;;13.50;99.90;;;;;;5014249;28;20038;-72
2023/08/08 01:34:13;;;;;;;17.23;6.60;;;13.50;99.90;;;;;;5024656;28;20040;-73
2023/08/08 01:37:22;;;;;;;12.15;6.45;;;13.50;99.90;;;;;;5025912;28;20864;-73
2023/08/08 01:39:50;;;;;;;13.18;6.18;;;13.60;99.90;;;;;;4940637;28;20203;-73
2023/08/08 01:42:17;;;;;;;12.52;6.65;;;13.60;99.90;;;;;;4935861;28;20047;-70
2023/08/08 01:44:44;;;;;;;11.80;6.63;;;13.60;99.90;;;;;;4981684;28;20420;-71
2023/08/08 01:47:09;;;;;;;11.40;6.55;;;13.60;99.90;;;;;;5005946;28;20040;-71
2023/08/08 01:49:35;;;;;;;11.57;7.00;;;13.60;99.90;;;;;;5014622;28;20042;-70
2023/08/08 01:52:01;;;;;;;18.50;7.10;;;13.70;99.90;;;;;;5025491;28;20655;-71
2023/08/08 01:54:26;;;;;;;12.18;6.93;;;13.70;99.90;;;;;;5024471;28;20124;-71
2023/08/08 01:56:52;;;;;;;10.38;6.50;;;13.70;99.90;;;;;;5008201;28;20034;-70
2023/08/08 01:59:18;;;;;;;10.52;6.78;;;13.70;99.90;;;;;;5023070;28;20041;-71
2023/08/08 02:01:43;;;;;;;12.15;7.38;;;13.70;99.90;;;;;;5026411;28;20049;-73
2023/08/08 02:04:09;;;;;;;13.82;7.45;;;13.70;99.90;;;;;;5017849;28;20128;-70
2023/08/08 02:06:34;;;;;;;12.52;7.18;;;13.70;99.90;;;;;;5024677;28;20079;-71
2023/08/08 02:09:00;;;;;;;14.23;7.38;;;13.70;99.90;;;;;;5026330;28;20046;-70
2023/08/08 02:11:25;;;;;;;17.58;7.55;;;13.70;99.90;;;;;;5033211;28;20042;-70
2023/08/08 02:13:51;;;;;;;13.18;7.55;;;13.80;99.90;;;;;;5012823;28;20046;-72
2023/08/08 02:16:17;;;;;;;16.15;7.80;;;13.80;99.90;;;;;;5019347;28;20043;-70
2023/08/08 02:18:42;;;;;;;13.70;6.88;;;13.80;99.90;;;;;;5031459;28;20487;-70
2023/08/08 02:21:08;;;;;;;14.80;7.43;;;13.90;99.90;;;;;;5013366;28;20049;-70
2023/08/08 02:23:34;;;;;;;17.10;7.30;;;13.90;99.90;;;;;;5020494;28;20495;-71
2023/08/08 02:26:00;;;;;;;14.40;7.25;;;13.90;99.90;;;;;;5027361;28;20056;-71
2023/08/08 02:28:26;;;;;;;17.27;7.15;;;13.90;99.90;;;;;;5013633;28;20046;-73
2023/08/08 02:30:53;;;;;;;11.48;6.75;;;14.00;99.90;;;;;;5022572;28;20052;-71
2023/08/08 02:33:19;;;;;;;11.27;6.97;;;14.00;99.90;;;;;;5025092;28;20099;-70
2023/08/08 02:35:44;;;;;;;17.20;6.93;;;14.00;99.90;;;;;;5019813;28;20361;-73
2023/08/08 02:38:10;;;;;;;15.70;7.47;;;14.00;99.90;;;;;;5038737;22;20120;-71
2023/08/08 02:40:36;;;;;;;12.65;6.97;;;14.00;99.90;;;;;;5020424;28;20048;-70
2023/08/08 02:43:01;;;;;;;13.00;7.32;;;14.00;99.90;;;;;;5044557;28;20044;-71
2023/08/08 02:45:27;;;;;;;14.85;6.93;;;14.10;99.90;;;;;;5048772;28;20040;-71
2023/08/08 02:47:53;;;;;;;12.13;6.47;;;14.00;99.90;;;;;;5039348;28;20390;-69
2023/08/08 02:50:19;;;;;;;13.75;7.05;;;14.00;99.90;;;;;;5037176;28;20037;-71
2023/08/08 02:52:44;;;;;;;13.75;7.13;;;14.00;99.90;;;;;;5039682;28;20041;-71
2023/08/08 02:55:10;;;;;;;16.25;7.18;;;14.00;99.90;;;;;;5034210;28;20524;-71
2023/08/08 02:57:36;;;;;;;14.90;7.10;;;14.00;99.90;;;;;;5022095;28;20650;-71
2023/08/08 03:00:03;;;;;;;14.77;7.72;;;14.00;99.90;;;;;;5012785;28;20849;-71
2023/08/08 03:02:29;;;;;;;14.07;7.57;;;14.00;99.90;;;;;;5009651;28;20038;-71
2023/08/08 03:04:55;;;;;;;14.25;7.22;;;14.00;99.90;;;;;;5030453;28;20389;-71
2023/08/08 03:07:20;;;;;;;13.73;7.30;;;13.90;99.90;;;;;;5042315;28;20033;-69
2023/08/08 03:09:46;;;;;;;11.40;7.47;;;13.90;99.90;;;;;;5036813;28;20038;-68
2023/08/08 03:12:12;;;;;;;17.15;8.07;;;13.90;99.90;;;;;;5022987;28;20044;-71
2023/08/08 03:14:37;;;;;;;17.40;7.88;;;13.80;99.90;;;;;;5027041;28;20037;-71
2023/08/08 03:17:03;;;;;;;15.05;7.05;;;13.80;99.90;;;;;;5027388;28;20912;-71
2023/08/08 03:19:29;;;;;;;16.02;7.25;;;13.80;99.90;;;;;;5033273;28;20129;-71
2023/08/08 03:21:55;;;;;;;15.77;7.70;;;13.80;99.90;;;;;;5044400;28;20483;-71
2023/08/08 03:24:20;;;;;;;12.98;7.05;;;13.70;99.90;;;;;;5010679;28;20046;-72
2023/08/08 03:26:46;;;;;;;13.30;7.05;;;13.70;99.90;;;;;;5021878;28;20045;-71
2023/08/08 03:29:12;;;;;;;14.60;7.00;;;13.70;99.90;;;;;;5027470;28;20037;-70
2023/08/08 03:31:38;;;;;;;14.98;7.18;;;13.70;99.90;;;;;;5039877;28;20441;-71
2023/08/08 03:34:04;;;;;;;13.70;7.30;;;13.70;99.90;;;;;;5043700;28;20078;-71
2023/08/08 03:36:30;;;;;;;13.38;6.32;;;13.70;99.90;;;;;;5031526;28;20451;-69
2023/08/08 03:38:55;;;;;;;17.23;6.70;;;13.70;99.90;;;;;;5008182;28;20152;-71
2023/08/08 03:41:21;;;;;;;16.17;6.20;;;13.70;99.90;;;;;;5033498;28;20051;-71
2023/08/08 03:43:47;;;;;;;11.45;5.95;;;13.70;99.90;;;;;;5006721;28;20038;-71
2023/08/08 03:46:12;;;;;;;13.90;6.20;;;13.70;99.90;;;;;;5035388;28;20474;-71
2023/08/08 03:48:39;;;;;;;16.48;5.65;;;13.70;99.90;;;;;;5032979;28;20048;-71
2023/08/08 03:51:04;;;;;;;14.85;6.03;;;13.70;99.90;;;;;;5035927;28;20051;-71
2023/08/08 03:53:30;;;;;;;11.48;5.88;;;13.60;99.90;;;;;;5008872;28;20041;-68
2023/08/08 03:55:55;;;;;;;10.27;5.25;;;13.60;99.90;;;;;;5038616;28;20041;-71
2023/08/08 03:58:21;;;;;;;13.30;5.57;;;13.60;99.90;;;;;;5025937;28;20187;-71
2023/08/08 04:00:47;;;;;;;11.43;5.10;;;13.60;99.90;;;;;;5004217;28;20089;-70
2023/08/08 04:03:16;;;;;;;9.75;5.13;;;13.50;99.90;;;;;;5036393;28;20043;-69
2023/08/08 04:05:46;;;;;;;10.55;5.40;;;13.50;99.90;;;;;;5043020;28;20155;-71
2023/08/08 04:08:13;;;;;;;16.95;4.78;;;13.40;99.90;;;;;;5039290;28;20049;-71
2023/08/08 04:10:38;;;;;;;11.45;4.63;;;13.40;99.90;;;;;;5009423;28;20073;-71
2023/08/08 04:13:04;;;;;;;11.57;4.93;;;13.30;99.90;;;;;;5024065;28;20050;-71
2023/08/08 04:15:29;;;;;;;9.27;4.55;;;13.30;99.90;;;;;;5049668;28;20414;-68
2023/08/08 04:17:55;;;;;;;9.30;4.30;;;13.30;99.90;;;;;;5005509;28;20046;-70
2023/08/08 04:20:21;;;;;;;14.13;4.93;;;13.30;99.90;;;;;;5031587;28;20174;-70
2023/08/08 04:22:46;;;;;;;12.57;4.45;;;13.20;99.90;;;;;;5010873;28;20172;-71
2023/08/08 04:25:12;;;;;;;8.43;4.10;;;13.20;99.90;;;;;;5008042;28;20046;-71
2023/08/08 04:27:37;;;;;;;10.10;4.95;;;13.20;99.90;;;;;;5017156;28;20047;-71
2023/08/08 04:30:04;;;;;;;13.88;4.43;;;13.20;99.90;;;;;;5035506;28;20048;-72
2023/08/08 04:32:30;;;;;;;10.95;4.70;;;13.20;99.90;;;;;;5042021;28;20640;-71
2023/08/08 04:34:55;;;;;;;8.48;4.53;;;13.10;99.90;;;;;;5016883;28;20534;-71
2023/08/08 04:37:21;;;;;;;12.98;4.28;;;13.10;99.90;;;;;;5025418;28;20037;-71
2023/08/08 04:39:47;;;;;;;10.00;4.68;;;13.10;99.90;;;;;;5031344;28;20033;-69
2023/08/08 04:42:12;;;;;;;15.50;4.97;;;13.10;99.90;;;;;;5043312;28;20048;-69
2023/08/08 04:44:38;;;;;;;10.30;4.40;;;13.10;99.90;;;;;;5023669;28;20183;-71
2023/08/08 04:47:04;;;;;;;7.30;4.13;;;13.10;99.90;;;;;;5034943;28;20642;-71
2023/08/08 04:49:30;;;;;;;10.35;4.18;;;13.10;99.90;;;;;;5037182;28;20099;-70
2023/08/08 04:51:55;;;;;;;8.93;4.20;;;13.20;99.90;;;;;;5017383;28;20646;-69
2023/08/08 04:54:21;;;;;;;11.45;4.38;;;13.30;99.90;;;;;;5042331;28;20039;-71
2023/08/08 04:56:46;;;;;;;7.03;3.88;;;13.30;99.90;;;;;;5024362;28;20047;-71
2023/08/08 04:59:12;;;;;;;10.15;3.65;;;13.40;99.90;;;;;;5012996;28;20033;-70
2023/08/08 05:01:38;;;;;;;11.15;4.00;;;13.40;99.90;;;;;;5031656;28;20029;-71
2023/08/08 05:04:03;;;;;;;10.60;3.80;;;13.40;99.90;;;;;;5043976;28;20434;-71
2023/08/08 05:06:29;;;;;;;7.43;3.78;;;13.50;99.90;;;;;;5030685;28;20052;-71
2023/08/08 05:08:56;;;;;;;10.45;3.72;;;13.50;99.90;;;;;;5018322;28;20152;-69
2023/08/08 05:11:22;;;;;;;13.15;3.75;;;13.50;99.90;;;;;;5037278;28;20515;-71
2023/08/08 05:13:48;;;;;;;8.20;3.60;;;13.60;99.90;;;;;;5002479;28;20050;-69
2023/08/08 05:16:13;;;;;;;6.93;3.55;;;13.70;99.90;;;;;;5005115;28;20040;-71
2023/08/08 05:18:40;;;;;;;13.93;3.50;;;13.80;99.90;;;;;;5017566;28;20037;-70
2023/08/08 05:21:06;;;;;;;10.65;3.42;;;13.90;99.90;;;;;;5042154;28;20202;-71
2023/08/08 05:23:32;;;;;;;7.95;3.30;;;14.10;99.90;;;;;;5022752;28;20527;-71
2023/08/08 05:25:58;;;;;;;15.65;4.05;;;14.20;99.90;;;;;;5036137;28;20115;-71
2023/08/08 05:28:23;;;;;;;9.70;3.42;;;14.40;99.90;;;;;;5002524;28;20522;-70
2023/08/08 05:30:49;;;;;;;9.80;3.25;;;14.50;99.90;;;;;;5018750;28;20042;-71
2023/08/08 05:33:15;;;;;;;8.18;3.00;;;14.60;99.90;;;;;;5016476;28;20332;-71
2023/08/08 05:35:40;;;;;;;8.30;2.80;;;14.60;99.90;;;;;;5012575;28;20069;-73
2023/08/08 05:38:06;;;;;;;9.23;2.85;;;14.70;99.90;;;;;;5007663;28;20952;-73
2023/08/08 05:40:35;;;;;;;8.05;2.58;;;14.70;99.90;;;;;;5006845;28;20030;-71
2023/08/08 05:43:02;;;;;;;9.43;2.83;;;14.70;99.90;;;;;;5024520;28;20120;-70
2023/08/08 05:45:28;;;;;;;8.20;2.85;;;14.70;99.90;;;;;;5037597;28;20056;-70
2023/08/08 05:47:54;;;;;;;6.97;2.60;;;14.70;99.90;;;;;;5029044;28;20205;-70
2023/08/08 05:50:20;;;;;;;9.32;2.53;;;14.70;99.90;;;;;;4999407;28;20780;-73
2023/08/08 05:52:46;;;;;;;12.07;2.50;;;14.70;99.90;;;;;;5005803;28;20487;-73
2023/08/08 05:55:12;;;;;;;7.85;2.92;;;14.70;99.90;;;;;;5007861;28;20121;-72
2023/08/08 05:57:37;;;;;;;8.63;2.30;;;14.70;99.90;;;;;;4999675;28;20125;-71
2023/08/08 06:00:05;;;;;;;8.25;2.22;;;14.70;99.90;;;;;;5016964;28;20120;-71
2023/08/08 06:02:30;;;;;;;7.38;2.40;;;14.70;99.90;;;;;;5037023;28;20041;-70
2023/08/08 06:04:56;;;;;;;7.68;3.00;;;14.70;99.90;;;;;;5041678;28;20052;-71
2023/08/08 06:07:22;;;;;;;5.88;2.20;;;14.70;99.90;;;;;;5033529;28;20038;-71
2023/08/08 06:09:47;;;;;;;7.80;2.38;;;14.70;99.90;;;;;;5006579;28;20048;-70
2023/08/08 06:12:13;;;;;;;11.10;2.50;;;14.70;99.90;;;;;;5041097;28;20498;-70
2023/08/08 06:14:39;;;;;;;9.68;2.60;;;14.60;99.90;;;;;;5021145;28;20036;-73
2023/08/08 06:17:05;;;;;;;6.75;2.33;;;14.60;99.90;;;;;;5036294;28;20082;-69
2023/08/08 06:19:31;;;;;;;8.23;2.40;;;14.60;99.90;;;;;;5024787;28;20056;-70
2023/08/08 06:21:56;;;;;;;5.15;2.25;;;14.60;99.90;;;;;;5020317;28;20418;-71
2023/08/08 06:24:22;;;;;;;6.22;2.28;;;14.80;99.90;;;;;;5029664;28;20041;-70
2023/08/08 06:26:48;;;;;;;12.25;2.85;;;14.80;99.90;;;;;;5037548;28;20396;-71
2023/08/08 06:29:14;;;;;;;10.38;2.63;;;15.00;99.90;;;;;;5040645;28;20052;-71
2023/08/08 06:31:40;;;;;;;11.77;2.30;;;15.00;99.90;;;;;;5009701;28;20045;-72
2023/08/08 06:34:06;;;;;;;6.20;2.50;;;15.10;99.90;;;;;;5033172;28;20543;-70
2023/08/08 06:36:31;;;;;;;4.60;2.22;;;15.00;99.90;;;;;;5015748;28;20076;-70
2023/08/08 06:39:00;;;;;;;11.65;2.70;;;15.10;99.90;;;;;;5039321;28;20041;-71
2023/08/08 06:41:26;;;;;;;7.47;2.30;;;15.10;99.90;;;;;;5042352;28;20036;-71
2023/08/08 06:43:51;;;;;;;8.05;2.50;;;15.20;99.90;;;;;;5028805;28;20172;-71
2023/08/08 06:46:20;;;;;;;8.05;2.30;;;15.20;99.90;;;;;;5023901;28;20736;-74
2023/08/08 06:48:46;;;;;;;6.18;2.08;;;15.30;99.90;;;;;;5010256;28;20088;-71
2023/08/08 06:51:12;;;;;;;8.52;2.20;;;15.50;99.90;;;;;;5023816;28;20115;-71
2023/08/08 06:53:38;;;;;;;8.63;2.30;;;15.50;99.90;;;;;;5011089;28;20128;-71
2023/08/08 06:56:04;;;;;;;6.15;2.10;;;15.60;99.90;;;;;;5024949;28;20049;-73
2023/08/08 06:58:29;;;;;;;9.88;2.80;;;15.70;99.90;;;;;;5041360;28;20504;-71
2023/08/08 07:00:55;;;;;;;8.45;2.25;;;15.80;99.90;;;;;;5042219;28;20060;-73
2023/08/08 07:03:20;;;;;;;5.55;2.00;;;15.80;99.90;;;;;;5011044;28;20057;-72
2023/08/08 07:05:51;;;;;;;8.93;2.15;;;15.90;99.90;;;;;;5033201;28;20044;-71
2023/08/08 07:08:17;;;;;;;6.60;2.17;;;16.10;99.90;;;;;;5039761;28;20060;-75
2023/08/08 07:10:43;;;;;;;4.68;1.85;;;16.10;99.90;;;;;;5038939;28;20084;-76
2023/08/08 07:13:08;;;;;;;5.63;2.03;;;16.20;99.90;;;;;;5028532;28;20128;-75
2023/08/08 07:15:34;;;;;;;6.18;2.17;;;16.20;99.90;;;;;;5018768;28;20037;-74
2023/08/08 07:18:00;;;;;;;3.72;1.67;;;16.30;99.90;;;;;;5040101;28;20152;-73
2023/08/08 07:20:25;;;;;;;10.70;1.80;;;16.30;99.90;;;;;;5030127;28;20117;-74
2023/08/08 07:22:51;;;;;;;5.18;1.90;;;16.40;99.90;;;;;;5042909;28;20065;-73
2023/08/08 07:25:17;;;;;;;5.88;1.70;;;16.50;99.90;;;;;;5051325;28;20577;-77
2023/08/08 07:27:42;;;;;;;7.65;1.80;;;16.50;99.90;;;;;;5051540;28;20045;-75
2023/08/08 07:30:08;;;;;;;4.78;1.60;;;16.50;99.90;;;;;;5041154;28;20040;-75
2023/08/08 07:32:34;;;;;;;6.25;1.95;;;16.50;99.90;;;;;;5039352;28;20056;-75
2023/08/08 07:35:02;;;;;;;8.90;1.70;;;16.50;99.90;;;;;;5052899;28;20487;-76
2023/08/08 07:37:28;;;;;;;7.93;2.25;;;16.60;99.90;;;;;;5027580;28;20048;-75
2023/08/08 07:39:53;;;;;;;7.07;1.50;;;16.60;99.90;;;;;;5031191;28;20041;-75
2023/08/08 07:42:19;;;;;;;4.50;1.42;;;16.70;99.90;;;;;;5036970;28;20032;-75
2023/08/08 07:44:44;;;;;;;7.82;1.55;;;16.70;99.90;;;;;;5052866;28;20040;-75
2023/08/08 07:47:10;;;;;;;7.30;1.40;;;16.80;99.90;;;;;;5029765;28;20041;-75
2023/08/08 07:49:36;;;;;;;4.35;1.63;;;16.80;99.90;;;;;;5046447;28;20049;-75
2023/08/08 07:52:01;;;;;;;4.65;1.73;;;16.90;99.90;;;;;;5052604;28;20183;-75
2023/08/08 07:54:27;;;;;;;5.72;1.60;;;17.00;99.90;;;;;;5032510;28;20098;-74
2023/08/08 07:56:53;;;;;;;7.55;2.00;;;17.10;99.90;;;;;;5035448;28;20484;-75
2023/08/08 07:59:19;;;;;;;6.38;1.75;;;17.10;99.90;;;;;;5030983;28;20043;-73
2023/08/08 08:01:44;;;;;;;5.13;1.60;;;17.30;99.90;;;;;;5050696;28;20025;-76
2023/08/08 08:04:10;;;;;;;6.38;1.42;;;17.30;99.90;;;;;;5050861;28;20041;-74
2023/08/08 08:06:35;;;;;;;4.55;1.70;;;17.50;99.90;;;;;;5041524;28;20034;-74
2023/08/08 08:09:01;;;;;;;4.85;1.70;;;17.50;99.90;;;;;;5039051;28;20033;-75
2023/08/08 08:11:27;;;;;;;5.32;1.55;;;17.70;99.90;;;;;;5024260;28;20047;-76
2023/08/08 08:13:52;;;;;;;6.40;2.13;;;18.00;99.90;;;;;;5046333;28;20475;-75
2023/08/08 08:16:18;;;;;;;6.80;1.50;;;18.00;99.90;;;;;;5051073;28;20041;-75
2023/08/08 08:18:44;;;;;;;6.63;1.55;;;17.70;99.90;;;;;;5033651;28;20034;-73
2023/08/08 08:21:09;;;;;;;5.53;1.48;;;17.50;99.90;;;;;;5046647;28;20045;-74
2023/08/08 08:23:35;;;;;;;3.35;1.40;;;17.40;99.90;;;;;;5050413;28;20045;-74
2023/08/08 08:26:00;;;;;;;5.15;1.40;;;17.40;99.90;;;;;;5049235;28;20076;-73
2023/08/08 08:28:26;;;;;;;3.90;1.38;;;17.40;99.90;;;;;;5018167;28;20049;-73
2023/08/08 08:30:53;;;;;;;11.32;2.38;;;17.40;99.90;;;;;;5044750;28;20037;-71
2023/08/08 08:33:18;;;;;;;5.22;1.90;;;17.50;99.90;;;;;;5052221;28;20045;-75
2023/08/08 08:35:45;;;;;;;3.92;1.40;;;17.60;99.90;;;;;;5044026;28;20037;-71
2023/08/08 08:38:11;;;;;;;3.38;1.45;;;17.60;99.90;;;;;;5022833;22;20081;-74
2023/08/08 08:40:40;;;;;;;3.92;1.45;;;17.60;99.90;;;;;;5013368;28;20061;-74
2023/08/08 08:43:07;;;;;;;3.40;1.35;;;17.70;99.90;;;;;;5005652;28;20099;-74
2023/08/08 08:45:38;;;;;;;4.68;1.50;;;17.80;99.90;;;;;;5005320;28;20038;-74
2023/08/08 08:48:08;;;;;;;3.42;1.60;;;17.90;99.90;;;;;;5002102;28;20038;-74
2023/08/08 08:50:34;;;;;;;5.13;1.50;;;18.00;99.90;;;;;;4985950;28;20058;-73
2023/08/08 08:53:01;;;;;;;4.07;1.30;;;18.10;99.90;;;;;;4980843;28;20086;-73
2023/08/08 08:55:27;;;;;;;2.65;1.60;;;18.00;99.90;;;;;;4999546;28;20037;-74
2023/08/08 08:57:53;;;;;;;6.18;1.48;;;17.90;99.90;;;;;;5006143;28;20046;-74
2023/08/08 09:00:19;;;;;;;3.38;1.38;;;17.90;99.90;;;;;;4995092;28;20400;-73
2023/08/08 09:02:44;;;;;;;4.65;1.40;;;17.90;99.90;;;;;;4996537;28;20041;-73
2023/08/08 09:05:12;;;;;;;4.50;1.40;;;17.90;99.90;;;;;;4988066;28;20115;-73
2023/08/08 09:07:38;;;;;;;5.47;1.55;;;18.10;99.90;;;;;;4979606;28;20042;-73
2023/08/08 09:10:04;;;;;;;8.85;1.75;;;18.00;99.90;;;;;;5002855;28;20038;-74
2023/08/08 09:12:31;;;;;;;3.85;1.33;;;18.00;99.90;;;;;;5010378;28;20132;-74
2023/08/08 09:14:57;;;;;;;3.28;1.33;;;17.90;99.90;;;;;;5004601;28;20049;-74
2023/08/08 09:17:27;;;;;;;5.65;1.80;;;17.80;99.90;;;;;;4983450;28;20425;-74
2023/08/08 09:19:55;;;;;;;2.38;1.33;;;17.60;99.90;;;;;;5000975;28;20523;-74
2023/08/08 09:22:21;;;;;;;3.70;1.60;;;17.70;99.90;;;;;;4996492;28;20053;-75
2023/08/08 09:24:46;;;;;;;4.57;1.60;;;17.70;99.90;;;;;;4995991;28;20286;-75
2023/08/08 09:27:13;;;;;;;5.30;1.45;;;17.70;99.90;;;;;;4995013;28;20041;-75
2023/08/08 09:29:41;;;;;;;5.10;1.50;;;17.80;99.90;;;;;;4988700;28;20093;-74
2023/08/08 09:32:07;;;;;;;7.25;1.40;;;18.00;99.90;;;;;;4990800;28;20042;-74
2023/08/08 09:34:33;;;;;;;4.72;1.50;;;18.00;99.90;;;;;;4970131;28;20547;-75
2023/08/08 09:37:00;;;;;;;5.07;1.58;;;18.10;99.90;;;;;;4959321;28;20128;-74
2023/08/08 09:39:26;;;;;;;5.00;1.50;;;18.20;99.90;;;;;;4975855;28;20100;-72
2023/08/08 09:41:52;;;;;;;4.68;1.50;;;18.10;99.90;;;;;;4973930;28;20832;-73
2023/08/08 09:44:18;;;;;;;3.85;1.40;;;18.00;99.90;;;;;;4978719;28;20034;-73
2023/08/08 09:46:43;;;;;;;3.88;1.48;;;18.00;99.90;;;;;;4982990;28;20039;-76
2023/08/08 09:49:13;;;;;;;4.45;1.60;;;18.00;99.90;;;;;;4980398;28;20042;-75
2023/08/08 09:51:39;;;;;;;5.07;1.90;;;18.00;99.90;;;;;;4972783;28;20093;-75
2023/08/08 09:54:06;;;;;;;4.13;1.50;;;17.90;99.90;;;;;;4980338;28;20046;-76
2023/08/08 09:56:34;;;;;;;7.57;1.70;;;17.70;99.90;;;;;;4973928;28;20043;-76
2023/08/08 09:59:01;;;;;;;4.00;1.65;;;17.70;99.90;;;;;;4974618;28;20068;-76
2023/08/08 10:01:28;;;;;;;6.40;1.50;;;17.90;99.90;;;;;;4977069;28;20092;-75
2023/08/08 10:03:53;;;;;;;4.18;1.50;;;18.40;99.90;;;;;;4979822;28;20514;-76
2023/08/08 10:06:19;;;;;;;5.80;1.63;;;18.50;99.90;;;;;;4973011;28;20122;-76
2023/08/08 10:08:45;;;;;;;12.63;1.80;;;18.20;99.90;;;;;;4971382;28;20034;-78
2023/08/08 10:11:12;;;;;;;5.63;1.83;;;17.60;99.90;;;;;;4979935;28;20797;-75
2023/08/08 10:13:46;;;;;;;5.97;1.80;;;16.90;99.90;;;;;;4977576;28;20047;-75
2023/08/08 10:16:14;;;;;;;4.25;1.70;;;16.50;99.90;;;;;;4975633;28;20039;-75
2023/08/08 10:18:40;;;;;;;6.53;1.90;;;16.30;99.90;;;;;;4966976;28;20049;-74
2023/08/08 10:21:06;;;;;;;2.85;1.52;;;16.30;99.90;;;;;;4985403;28;20046;-75
2023/08/08 10:23:37;;;;;;;3.90;1.70;;;16.20;99.90;;;;;;4982558;28;20699;-74
2023/08/08 10:26:03;;;;;;;3.65;1.85;;;16.30;99.90;;;;;;4985528;28;20038;-75
2023/08/08 10:28:31;;;;;;;6.85;1.85;;;16.50;99.90;;;;;;4993416;28;20106;-75
2023/08/08 10:30:59;;;;;;;3.88;1.70;;;16.70;99.90;;;;;;4988482;28;20046;-75
2023/08/08 10:33:26;;;;;;;5.63;2.00;;;17.10;99.90;;;;;;4996500;28;20041;-74
2023/08/08 10:35:59;;;;;;;2.55;1.58;;;17.20;99.90;;;;;;5003003;28;20045;-74
2023/08/08 10:38:26;;;;;;;4.15;1.80;;;17.40;99.90;;;;;;4989011;28;20038;-74
2023/08/08 10:40:59;;;;;;;3.65;1.60;;;17.40;99.90;;;;;;4974552;28;20061;-75
2023/08/08 10:43:29;;;;;;;3.85;1.73;;;17.30;99.90;;;;;;4989405;28;20047;-74
2023/08/08 10:46:00;;;;;;;6.43;1.90;;;17.30;99.90;;;;;;4987483;28;20050;-72
2023/08/08 10:48:26;;;;;;;4.03;1.80;;;17.30;99.90;;;;;;5007892;28;20042;-75
2023/08/08 10:50:55;;;;;;;3.92;2.03;;;17.10;99.90;;;;;;5010676;28;20574;-72
2023/08/08 10:53:29;;;;;;;3.63;2.10;;;16.90;99.90;;;;;;4977796;28;20169;-79
2023/08/08 10:56:03;;;;;;;3.63;1.70;;;16.80;99.90;;;;;;5000247;28;20060;-76
2023/08/08 10:58:40;;;;;;;5.03;2.03;;;16.90;99.90;;;;;;4981892;28;20038;-76
2023/08/08 11:01:10;;;;;;;3.78;2.08;;;17.00;99.90;;;;;;5006759;28;20077;-80
2023/08/08 11:03:39;;;;;;;5.10;2.05;;;17.10;99.90;;;;;;4993106;28;20034;-76
2023/08/08 11:06:06;;;;;;;5.07;2.00;;;17.30;99.90;;;;;;4991867;28;20043;-75
2023/08/08 11:08:32;;;;;;;12.10;1.92;;;17.60;99.90;;;;;;4984198;28;20121;-76
2023/08/08 11:10:59;;;;;;;6.78;1.88;;;17.90;99.90;;;;;;4967158;28;20512;-74
2023/08/08 11:13:25;;;;;;;4.72;1.95;;;17.90;99.90;;;;;;4978165;28;20567;-75
2023/08/08 11:15:51;;;;;;;7.18;1.88;;;18.00;99.90;;;;;;4981679;28;20037;-74
2023/08/08 11:18:16;;;;;;;5.22;1.92;;;18.20;99.90;;;;;;4982524;28;20040;-70
2023/08/08 11:20:42;;;;;;;7.57;2.60;;;18.20;99.90;;;;;;4979205;28;20688;-76
2023/08/08 11:23:10;;;;;;;7.85;2.65;;;18.00;99.90;;;;;;5006140;28;20073;-71
2023/08/08 11:25:36;;;;;;;4.50;1.75;;;17.70;99.90;;;;;;5005572;28;20038;-77
2023/08/08 11:28:03;;;;;;;3.42;1.80;;;17.40;99.90;;;;;;4978410;28;20084;-71
2023/08/08 11:30:43;;;;;;;4.75;1.40;;;17.10;99.90;;;;;;4976161;28;20053;-75
2023/08/08 11:33:10;;;;;;;4.60;1.58;;;17.10;99.90;;;;;;4976367;28;20589;-75
2023/08/08 11:35:36;;;;;;;3.85;1.73;;;17.40;99.90;;;;;;4990635;28;20069;-75
2023/08/08 11:38:04;;;;;;;3.13;1.75;;;17.60;99.90;;;;;;4987946;28;20081;-75
2023/08/08 11:40:30;;;;;;;5.28;2.08;;;17.80;99.90;;;;;;4997348;28;20117;-72
2023/08/08 11:42:56;;;;;;;4.13;1.80;;;18.10;99.90;;;;;;4986103;28;20141;-72
2023/08/08 11:45:23;;;;;;;8.80;2.13;;;18.20;99.90;;;;;;4987987;28;20097;-72
2023/08/08 11:47:50;;;;;;;6.15;1.85;;;18.50;99.90;;;;;;4968581;28;20039;-71
2023/08/08 11:50:18;;;;;;;3.65;1.60;;;18.50;99.90;;;;;;5007453;28;20049;-72
2023/08/08 11:52:46;;;;;;;7.07;2.05;;;18.10;99.90;;;;;;5000576;28;20069;-73
2023/08/08 11:55:12;;;;;;;3.90;1.75;;;17.10;99.90;;;;;;4998425;28;20385;-76
2023/08/08 11:57:39;;;;;;;4.57;2.13;;;16.30;99.90;;;;;;4986009;28;20113;-73
2023/08/08 12:00:12;;;;;;;4.93;2.30;;;15.50;99.90;;;;;;5004195;28;20030;-75
2023/08/08 12:02:44;;;;;;;4.50;2.40;;;15.20;99.90;;;;;;5002747;28;20037;-73
2023/08/08 12:05:17;;;;;;;3.63;2.40;;;15.10;99.90;;;;;;4975714;28;20057;-73
2023/08/08 12:07:45;;;;;;;5.10;2.53;;;15.30;99.90;;;;;;4977278;28;20042;-73
2023/08/08 12:10:19;;;;;;;6.75;2.50;;;15.70;99.90;;;;;;4975280;28;20198;-73
2023/08/08 12:12:46;;;;;;;6.07;2.83;;;15.90;99.90;;;;;;4970880;28;20493;-73
2023/08/08 12:15:12;;;;;;;4.88;2.50;;;16.20;99.90;;;;;;4987625;28;20034;-74
2023/08/08 12:17:38;;;;;;;5.60;2.20;;;16.50;99.90;;;;;;4985018;28;20417;-73
2023/08/08 12:20:06;;;;;;;5.65;2.25;;;16.60;99.90;;;;;;4974067;28;20126;-73
2023/08/08 12:22:32;;;;;;;4.53;2.20;;;16.60;99.90;;;;;;4986505;28;20195;-73
2023/08/08 12:24:58;;;;;;;10.38;2.55;;;16.50;99.90;;;;;;4995271;28;20038;-73
2023/08/08 12:27:23;;;;;;;6.03;2.10;;;16.60;99.90;;;;;;4981803;28;20053;-73
2023/08/08 12:29:49;;;;;;;5.18;2.47;;;16.40;99.90;;;;;;4981366;28;20121;-73
2023/08/08 12:32:15;;;;;;;7.45;2.70;;;16.40;99.90;;;;;;4994482;28;20069;-73
2023/08/08 12:34:40;;;;;;;6.07;2.60;;;16.30;99.90;;;;;;5010061;28;20033;-78
2023/08/08 12:37:06;;;;;;;7.63;2.40;;;16.10;99.90;;;;;;4995149;28;20093;-74
2023/08/08 12:39:32;;;;;;;4.03;2.20;;;16.00;99.90;;;;;;5004102;28;20508;-75